Time,TemperatureF,DewpointF,PressureIn,WindDirection,WindDirectionDegrees,WindSpeedMPH,WindSpeedGustMPH,Humidity,HourlyPrecipIn,Conditions,Clouds,dailyrainin,SoftwareType,DateUTC
2013-07-07 00:08:00,80.8,73.0,30.12,West,261,0.0,-999.0,76,-99.99,,,0.00,weatherlink.com 1.10,2013-07-07 04:08:00,
2013-07-07 00:23:00,80.2,72.0,30.12,West,261,0.0,-999.0,77,-99.99,,,0.00,weatherlink.com 1.10,2013-07-07 04:23:00,
2013-07-07 00:38:00,79.8,72.0,30.11,West,261,1.0,-999.0,78,-99.99,,,0.00,weatherlink.com 1.10,2013-07-07 04:38:00,
2013-07-07 00:54:00,79.4,72.0,30.11,SW,215,0.0,-999.0,79,-99.99,,,0.00,weatherlink.com 1.10,2013-07-07 04:54:00,
2013-07-07 01:08:00,79.0,72.0,30.11,WSW,250,1.0,-999.0,80,-99.99,,,0.00,weatherlink.com 1.10,2013-07-07 05:08:00,
2013-07-07 01:24:00,78.7,72.0,30.11,WSW,243,0.0,-999.0,79,-99.99,,,0.00,weatherlink.com 1.10,2013-07-07 05:24:00,
2013-07-07 01:38:00,78.7,72.0,30.10,West,268,0.0,-999.0,79,-99.99,,,0.00,weatherlink.com 1.10,2013-07-07 05:38:00,
2013-07-07 01:54:00,78.7,72.0,30.10,West,268,0.0,-999.0,79,-99.99,,,0.00,weatherlink.com 1.10,2013-07-07 05:54:00,
2013-07-07 02:09:00,78.6,72.0,30.09,West,278,2.0,-999.0,79,-99.99,,,0.00,weatherlink.com 1.10,2013-07-07 06:09:00,
2013-07-07 02:24:00,78.3,72.0,30.09,WSW,243,0.0,-999.0,80,-99.99,,,0.00,weatherlink.com 1.10,2013-07-07 06:24:00,
2013-07-07 02:39:00,78.1,71.0,30.09,WNW,285,0.0,-999.0,80,-99.99,,,0.00,weatherlink.com 1.10,2013-07-07 06:39:00,
2013-07-07 02:55:00,78.0,72.0,30.09,WNW,286,0.0,-999.0,81,-99.99,,,0.00,weatherlink.com 1.10,2013-07-07 06:55:00,
2013-07-07 03:10:00,77.6,71.0,30.09,WSW,252,0.0,-999.0,81,-99.99,,,0.00,weatherlink.com 1.10,2013-07-07 07:10:00,
2013-07-07 03:25:00,77.5,72.0,30.09,West,263,0.0,-999.0,82,-99.99,,,0.00,weatherlink.com 1.10,2013-07-07 07:25:00,
2013-07-07 03:40:00,77.4,71.0,30.09,West,261,0.0,-999.0,82,-99.99,,,0.00,weatherlink.com 1.10,2013-07-07 07:40:00,
2013-07-07 03:55:00,77.2,72.0,30.09,WSW,247,0.0,-999.0,83,-99.99,,,0.00,weatherlink.com 1.10,2013-07-07 07:55:00,
2013-07-07 04:10:00,77.0,71.0,30.09,WSW,256,2.0,-999.0,83,-99.99,,,0.00,weatherlink.com 1.10,2013-07-07 08:10:00,
2013-07-07 04:26:00,76.8,72.0,30.08,WSW,242,1.0,-999.0,84,-99.99,,,0.00,weatherlink.com 1.10,2013-07-07 08:26:00,
2013-07-07 04:40:00,76.6,71.0,30.08,WSW,244,0.0,-999.0,84,-99.99,,,0.00,weatherlink.com 1.10,2013-07-07 08:40:00,
2013-07-07 04:56:00,76.5,71.0,30.08,WSW,245,2.0,-999.0,84,-99.99,,,0.00,weatherlink.com 1.10,2013-07-07 08:56:00,
2013-07-07 05:11:00,76.3,71.0,30.09,WSW,257,1.0,-999.0,85,-99.99,,,0.00,weatherlink.com 1.10,2013-07-07 09:11:00,
2013-07-07 05:26:00,76.1,71.0,30.08,SW,226,1.0,-999.0,85,-99.99,,,0.00,weatherlink.com 1.10,2013-07-07 09:26:00,
2013-07-07 05:41:00,76.0,71.0,30.09,West,263,0.0,-999.0,85,-99.99,,,0.00,weatherlink.com 1.10,2013-07-07 09:41:00,
2013-07-07 05:57:00,75.8,71.0,30.09,West,263,0.0,-999.0,86,-99.99,,,0.00,weatherlink.com 1.10,2013-07-07 09:57:00,
2013-07-07 06:12:00,75.6,71.0,30.09,West,260,0.0,-999.0,87,-99.99,,,0.00,weatherlink.com 1.10,2013-07-07 10:12:00,
2013-07-07 06:27:00,75.4,71.0,30.10,West,260,0.0,-999.0,87,-99.99,,,0.00,weatherlink.com 1.10,2013-07-07 10:27:00,
2013-07-07 06:42:00,75.3,71.0,30.10,West,260,0.0,-999.0,87,-99.99,,,0.00,weatherlink.com 1.10,2013-07-07 10:42:00,
2013-07-07 06:57:00,75.3,71.0,30.10,SSE,163,0.0,-999.0,88,-99.99,,,0.00,weatherlink.com 1.10,2013-07-07 10:57:00,
2013-07-07 07:12:00,75.9,72.0,30.10,WSW,257,2.0,-999.0,87,-99.99,,,0.00,weatherlink.com 1.10,2013-07-07 11:12:00,
2013-07-07 07:27:00,76.7,72.0,30.10,West,259,1.0,-999.0,86,-99.99,,,0.00,weatherlink.com 1.10,2013-07-07 11:27:00,
2013-07-07 07:42:00,77.4,72.0,30.10,WNW,296,0.0,-999.0,84,-99.99,,,0.00,weatherlink.com 1.10,2013-07-07 11:42:00,
2013-07-07 07:58:00,78.7,73.0,30.10,West,269,0.0,-999.0,82,-99.99,,,0.00,weatherlink.com 1.10,2013-07-07 11:58:00,
2013-07-07 08:12:00,79.2,72.0,30.09,WNW,292,2.0,-999.0,80,-99.99,,,0.00,weatherlink.com 1.10,2013-07-07 12:12:00,
2013-07-07 08:28:00,79.9,73.0,30.09,SSW,213,1.0,-999.0,79,-99.99,,,0.00,weatherlink.com 1.10,2013-07-07 12:28:00,
2013-07-07 08:43:00,80.7,73.0,30.10,SW,232,1.0,-999.0,78,-99.99,,,0.00,weatherlink.com 1.10,2013-07-07 12:43:00,
2013-07-07 08:58:00,81.1,73.0,30.10,SW,236,1.0,-999.0,76,-99.99,,,0.00,weatherlink.com 1.10,2013-07-07 12:58:00,
2013-07-07 09:13:00,81.5,73.0,30.10,WSW,244,3.0,-999.0,76,-99.99,,,0.00,weatherlink.com 1.10,2013-07-07 13:13:00,
2013-07-07 09:28:00,82.2,74.0,30.09,SSE,166,0.0,-999.0,76,-99.99,,,0.00,weatherlink.com 1.10,2013-07-07 13:28:00,
2013-07-07 09:44:00,82.8,74.0,30.09,SSE,157,4.0,-999.0,74,-99.99,,,0.00,weatherlink.com 1.10,2013-07-07 13:44:00,
2013-07-07 09:59:00,83.1,74.0,30.09,South,173,2.0,-999.0,74,-99.99,,,0.00,weatherlink.com 1.10,2013-07-07 13:59:00,
2013-07-07 10:14:00,83.6,74.0,30.09,SW,221,1.0,-999.0,73,-99.99,,,0.00,weatherlink.com 1.10,2013-07-07 14:14:00,
2013-07-07 10:29:00,84.3,75.0,30.08,SW,232,1.0,-999.0,73,-99.99,,,0.00,weatherlink.com 1.10,2013-07-07 14:29:00,
2013-07-07 10:45:00,85.0,75.0,30.08,WSW,251,1.0,-999.0,72,-99.99,,,0.00,weatherlink.com 1.10,2013-07-07 14:45:00,
2013-07-07 10:59:00,85.4,75.0,30.09,WNW,293,1.0,-999.0,71,-99.99,,,0.00,weatherlink.com 1.10,2013-07-07 14:59:00,
2013-07-07 11:15:00,86.3,75.0,30.08,SSE,162,0.0,-999.0,70,-99.99,,,0.00,weatherlink.com 1.10,2013-07-07 15:15:00,
2013-07-07 11:30:00,87.0,75.0,30.08,South,175,1.0,-999.0,68,-99.99,,,0.00,weatherlink.com 1.10,2013-07-07 15:30:00,
2013-07-07 11:45:00,87.7,75.0,30.08,WSW,257,2.0,-999.0,67,-99.99,,,0.00,weatherlink.com 1.10,2013-07-07 15:45:00,
2013-07-07 12:00:00,88.2,75.0,30.08,WSW,256,4.0,-999.0,65,-99.99,,,0.00,weatherlink.com 1.10,2013-07-07 16:00:00,
2013-07-07 12:16:00,88.5,75.0,30.07,SSW,197,4.0,-999.0,65,-99.99,,,0.00,weatherlink.com 1.10,2013-07-07 16:16:00,
2013-07-07 12:30:00,89.2,75.0,30.07,WNW,284,1.0,-999.0,64,-99.99,,,0.00,weatherlink.com 1.10,2013-07-07 16:30:00,
2013-07-07 12:46:00,89.5,75.0,30.07,South,181,2.0,-999.0,63,-99.99,,,0.00,weatherlink.com 1.10,2013-07-07 16:46:00,
2013-07-07 13:01:00,89.3,76.0,30.07,SSW,194,1.0,-999.0,64,-99.99,,,0.00,weatherlink.com 1.10,2013-07-07 17:01:00,
2013-07-07 13:16:00,89.9,76.0,30.06,SSW,213,4.0,-999.0,63,-99.99,,,0.00,weatherlink.com 1.10,2013-07-07 17:16:00,
2013-07-07 13:31:00,89.5,75.0,30.05,South,186,0.0,-999.0,63,-99.99,,,0.00,weatherlink.com 1.10,2013-07-07 17:31:00,
2013-07-07 13:46:00,90.0,76.0,30.05,SSE,166,7.0,-999.0,64,-99.99,,,0.00,weatherlink.com 1.10,2013-07-07 17:46:00,
2013-07-07 14:01:00,90.7,75.0,30.04,WSW,248,3.0,-999.0,61,-99.99,,,0.00,weatherlink.com 1.10,2013-07-07 18:01:00,
2013-07-07 14:16:00,90.7,75.0,30.04,SSW,192,4.0,-999.0,61,-99.99,,,0.00,weatherlink.com 1.10,2013-07-07 18:16:00,
2013-07-07 14:31:00,90.7,75.0,30.03,WSW,252,3.0,-999.0,60,-99.99,,,0.00,weatherlink.com 1.10,2013-07-07 18:31:00,
2013-07-07 14:47:00,90.2,75.0,30.02,SW,233,4.0,-999.0,61,-99.99,,,0.00,weatherlink.com 1.10,2013-07-07 18:47:00,
2013-07-07 15:02:00,90.2,75.0,30.02,SW,236,5.0,-999.0,62,-99.99,,,0.00,weatherlink.com 1.10,2013-07-07 19:02:00,
2013-07-07 15:17:00,89.7,75.0,30.01,South,188,2.0,-999.0,63,-99.99,,,0.00,weatherlink.com 1.10,2013-07-07 19:17:00,
2013-07-07 15:32:00,89.7,75.0,30.01,South,169,4.0,-999.0,63,-99.99,,,0.00,weatherlink.com 1.10,2013-07-07 19:32:00,
2013-07-07 15:48:00,90.1,75.0,30.01,SSW,198,7.0,-999.0,62,-99.99,,,0.00,weatherlink.com 1.10,2013-07-07 19:48:00,
2013-07-07 16:02:00,90.2,75.0,30.01,WSW,238,11.0,-999.0,61,-99.99,,,0.00,weatherlink.com 1.10,2013-07-07 20:02:00,
2013-07-07 16:18:00,90.5,75.0,30.01,West,281,2.0,-999.0,60,-99.99,,,0.00,weatherlink.com 1.10,2013-07-07 20:18:00,
2013-07-07 16:32:00,90.1,75.0,30.00,SSE,157,0.0,-999.0,61,-99.99,,,0.00,weatherlink.com 1.10,2013-07-07 20:32:00,
2013-07-07 16:48:00,90.2,76.0,30.00,SW,227,6.0,-999.0,63,-99.99,,,0.00,weatherlink.com 1.10,2013-07-07 20:48:00,
2013-07-07 17:03:00,90.1,75.0,30.00,SSW,204,4.0,-999.0,61,-99.99,,,0.00,weatherlink.com 1.10,2013-07-07 21:03:00,
2013-07-07 17:18:00,89.1,74.0,30.00,WSW,244,4.0,-999.0,62,-99.99,,,0.00,weatherlink.com 1.10,2013-07-07 21:18:00,
2013-07-07 17:33:00,90.1,75.0,30.00,SW,227,1.0,-999.0,61,-99.99,,,0.00,weatherlink.com 1.10,2013-07-07 21:33:00,
2013-07-07 17:48:00,89.8,75.0,30.01,South,185,2.0,-999.0,62,-99.99,,,0.00,weatherlink.com 1.10,2013-07-07 21:48:00,
2013-07-07 18:04:00,89.3,74.0,30.00,WSW,256,5.0,-999.0,61,-99.99,,,0.00,weatherlink.com 1.10,2013-07-07 22:04:00,
2013-07-07 18:19:00,88.8,74.0,30.01,WSW,244,0.0,-999.0,61,-99.99,,,0.00,weatherlink.com 1.10,2013-07-07 22:19:00,
2013-07-07 18:34:00,85.6,70.0,30.03,NE,45,1.0,-999.0,59,-99.99,,,0.00,weatherlink.com 1.10,2013-07-07 22:34:00,
2013-07-07 18:49:00,81.4,68.0,30.05,NW,313,1.0,-999.0,64,-99.99,,,0.00,weatherlink.com 1.10,2013-07-07 22:49:00,
2013-07-07 19:04:00,80.1,68.0,30.03,East,92,1.0,-999.0,67,-99.99,,,0.00,weatherlink.com 1.10,2013-07-07 23:04:00,
2013-07-07 19:19:00,78.5,70.0,30.03,WNW,298,0.0,-999.0,74,-99.99,,,0.00,weatherlink.com 1.10,2013-07-07 23:19:00,
2013-07-07 19:34:00,77.7,70.0,30.04,West,266,1.0,-999.0,77,-99.99,,,0.00,weatherlink.com 1.10,2013-07-07 23:34:00,
2013-07-07 19:50:00,77.0,69.0,30.05,West,281,1.0,-999.0,77,-99.99,,,0.00,weatherlink.com 1.10,2013-07-07 23:50:00,
2013-07-07 20:05:00,76.6,69.0,30.06,West,269,5.0,-999.0,77,-99.99,,,0.00,weatherlink.com 1.10,2013-07-08 00:05:00,
2013-07-07 20:20:00,76.2,69.0,30.07,WNW,294,5.0,-999.0,78,-99.99,,,0.00,weatherlink.com 1.10,2013-07-08 00:20:00,
2013-07-07 20:35:00,75.6,69.0,30.07,WNW,288,0.0,-999.0,81,-99.99,,,0.01,weatherlink.com 1.10,2013-07-08 00:35:00,
2013-07-07 20:50:00,74.4,70.0,30.07,West,265,0.0,-999.0,85,-99.99,,,0.03,weatherlink.com 1.10,2013-07-08 00:50:00,
2013-07-07 21:06:00,73.4,70.0,30.06,WNW,287,0.0,-999.0,88,-99.99,,,0.03,weatherlink.com 1.10,2013-07-08 01:06:00,
2013-07-07 21:20:00,72.9,69.0,30.05,WNW,287,0.0,-999.0,88,-99.99,,,0.04,weatherlink.com 1.10,2013-07-08 01:20:00,
2013-07-07 21:36:00,72.6,69.0,30.05,WNW,286,0.0,-999.0,89,-99.99,,,0.04,weatherlink.com 1.10,2013-07-08 01:36:00,
2013-07-07 21:51:00,72.4,69.0,30.06,WNW,286,0.0,-999.0,89,-99.99,,,0.04,weatherlink.com 1.10,2013-07-08 01:51:00,
2013-07-07 22:06:00,72.2,69.0,30.06,WNW,286,0.0,-999.0,90,-99.99,,,0.04,weatherlink.com 1.10,2013-07-08 02:06:00,
2013-07-07 22:21:00,72.1,69.0,30.06,WNW,286,0.0,-999.0,90,-99.99,,,0.04,weatherlink.com 1.10,2013-07-08 02:21:00,
2013-07-07 22:36:00,72.0,69.0,30.06,WNW,286,0.0,-999.0,91,-99.99,,,0.04,weatherlink.com 1.10,2013-07-08 02:36:00,
2013-07-07 22:51:00,72.0,69.0,30.06,WNW,286,1.0,-999.0,91,-99.99,,,0.04,weatherlink.com 1.10,2013-07-08 02:51:00,
2013-07-07 23:07:00,72.2,70.0,30.06,WNW,286,0.0,-999.0,92,-99.99,,,0.04,weatherlink.com 1.10,2013-07-08 03:07:00,
2013-07-07 23:22:00,72.3,70.0,30.06,WNW,286,0.0,-999.0,92,-99.99,,,0.04,weatherlink.com 1.10,2013-07-08 03:22:00,
2013-07-07 23:37:00,72.3,70.0,30.06,WNW,286,0.0,-999.0,92,-99.99,,,0.04,weatherlink.com 1.10,2013-07-08 03:37:00,
2013-07-07 23:52:00,72.2,70.0,30.06,WNW,286,0.0,-999.0,92,-99.99,,,0.04,weatherlink.com 1.10,2013-07-08 03:52:00,